sensor_id;sensor_type;location;lat;lon;timestamp;pressure;altitude;pressure_sealevel;temperature;humidity
23223;BME280;11780;13.904;100.620;2023-05-11T00:00:16;101023.28;;;32.48;68.80
23223;BME280;11780;13.904;100.620;2023-05-11T00:02:47;101020.06;;;32.46;68.82
23223;BME280;11780;13.904;100.620;2023-05-11T00:05:17;101024.91;;;32.49;68.84
23223;BME280;11780;13.904;100.620;2023-05-11T00:07:47;101027.69;;;32.49;68.87
23223;BME280;11780;13.904;100.620;2023-05-11T00:10:18;101031.59;;;32.48;68.91
23223;BME280;11780;13.904;100.620;2023-05-11T00:12:48;101034.69;;;32.47;69.09
23223;BME280;11780;13.904;100.620;2023-05-11T00:15:19;101041.88;;;32.48;69.15
23223;BME280;11780;13.904;100.620;2023-05-11T00:17:51;101049.84;;;32.49;69.02
23223;BME280;11780;13.904;100.620;2023-05-11T00:20:21;101055.72;;;32.48;69.12
23223;BME280;11780;13.904;100.620;2023-05-11T00:22:52;101057.50;;;32.53;69.21
23223;BME280;11780;13.904;100.620;2023-05-11T00:25:23;101062.88;;;32.49;69.21
23223;BME280;11780;13.904;100.620;2023-05-11T00:27:53;101057.00;;;32.50;69.45
23223;BME280;11780;13.904;100.620;2023-05-11T00:30:23;101072.00;;;32.49;69.41
23223;BME280;11780;13.904;100.620;2023-05-11T00:32:53;101071.03;;;32.45;69.39
23223;BME280;11780;13.904;100.620;2023-05-11T00:35:23;101075.75;;;32.45;69.36
23223;BME280;11780;13.904;100.620;2023-05-11T00:37:53;101088.59;;;32.49;69.57
23223;BME280;11780;13.904;100.620;2023-05-11T00:40:24;101089.28;;;32.46;69.52
23223;BME280;11780;13.904;100.620;2023-05-11T00:42:55;101095.78;;;32.50;69.49
23223;BME280;11780;13.904;100.620;2023-05-11T00:45:25;101103.28;;;32.50;69.48
23223;BME280;11780;13.904;100.620;2023-05-11T00:47:55;101102.44;;;32.49;69.59
23223;BME280;11780;13.904;100.620;2023-05-11T00:50:26;101110.25;;;32.47;69.84
23223;BME280;11780;13.904;100.620;2023-05-11T00:52:57;101106.69;;;32.47;69.60
23223;BME280;11780;13.904;100.620;2023-05-11T00:55:29;101113.53;;;32.49;69.60
23223;BME280;11780;13.904;100.620;2023-05-11T00:58:01;101111.88;;;32.48;69.80
23223;BME280;11780;13.904;100.620;2023-05-11T01:00:35;101122.97;;;32.48;69.63
23223;BME280;11780;13.904;100.620;2023-05-11T01:03:05;101129.81;;;32.51;69.58
23223;BME280;11780;13.904;100.620;2023-05-11T01:05:44;101129.63;;;32.47;69.80
23223;BME280;11780;13.904;100.620;2023-05-11T01:08:21;101137.66;;;32.49;69.68
23223;BME280;11780;13.904;100.620;2023-05-11T01:11:07;101143.97;;;32.49;69.92
23223;BME280;11780;13.904;100.620;2023-05-11T01:13:43;101144.81;;;32.50;69.79
23223;BME280;11780;13.904;100.620;2023-05-11T01:16:19;101148.72;;;32.49;69.93
23223;BME280;11780;13.904;100.620;2023-05-11T01:19:03;101155.88;;;32.50;70.18
23223;BME280;11780;13.904;100.620;2023-05-11T01:21:38;101149.22;;;32.51;70.02
23223;BME280;11780;13.904;100.620;2023-05-11T01:24:43;101162.56;;;32.49;70.32
23223;BME280;11780;13.904;100.620;2023-05-11T01:32:54;101183.72;;;32.54;70.16
23223;BME280;11780;13.904;100.620;2023-05-11T01:35:29;101178.84;;;32.50;70.25
23223;BME280;11780;13.904;100.620;2023-05-11T01:38:05;101172.50;;;32.50;70.23
23223;BME280;11780;13.904;100.620;2023-05-11T01:40:40;101188.28;;;32.49;70.08
23223;BME280;11780;13.904;100.620;2023-05-11T01:43:12;101184.38;;;32.50;70.34
23223;BME280;11780;13.904;100.620;2023-05-11T01:45:48;101194.00;;;32.53;70.25
23223;BME280;11780;13.904;100.620;2023-05-11T01:48:22;101189.59;;;32.52;70.13
23223;BME280;11780;13.904;100.620;2023-05-11T01:50:58;101191.53;;;32.52;70.20
23223;BME280;11780;13.904;100.620;2023-05-11T01:53:33;101193.19;;;32.53;70.11
23223;BME280;11780;13.904;100.620;2023-05-11T01:56:05;101197.91;;;32.52;70.55
23223;BME280;11780;13.904;100.620;2023-05-11T01:58:37;101186.00;;;32.52;70.53
23223;BME280;11780;13.904;100.620;2023-05-11T02:01:10;101190.41;;;32.53;70.58
23223;BME280;11780;13.904;100.620;2023-05-11T02:03:42;101189.59;;;32.52;70.56
23223;BME280;11780;13.904;100.620;2023-05-11T02:06:16;101183.72;;;32.54;70.50
23223;BME280;11780;13.904;100.620;2023-05-11T02:08:49;101179.34;;;32.53;70.46
23223;BME280;11780;13.904;100.620;2023-05-11T02:11:21;101184.22;;;32.56;70.43
23223;BME280;11780;13.904;100.620;2023-05-11T02:13:57;101177.22;;;32.58;70.36
23223;BME280;11780;13.904;100.620;2023-05-11T02:16:28;101182.25;;;32.56;70.60
23223;BME280;11780;13.904;100.620;2023-05-11T02:19:03;101174.78;;;32.57;70.68
23223;BME280;11780;13.904;100.620;2023-05-11T02:21:36;101187.78;;;32.56;70.74
23223;BME280;11780;13.904;100.620;2023-05-11T02:24:07;101184.72;;;32.58;70.65
23223;BME280;11780;13.904;100.620;2023-05-11T02:26:37;101180.81;;;32.59;70.64
23223;BME280;11780;13.904;100.620;2023-05-11T02:29:08;101173.31;;;32.59;70.59
23223;BME280;11780;13.904;100.620;2023-05-11T02:31:42;101181.31;;;32.61;70.47
23223;BME280;11780;13.904;100.620;2023-05-11T02:34:37;101170.22;;;32.61;70.52
23223;BME280;11780;13.904;100.620;2023-05-11T02:37:12;101169.25;;;32.57;70.65
23223;BME280;11780;13.904;100.620;2023-05-11T02:39:45;101168.25;;;32.61;70.55
23223;BME280;11780;13.904;100.620;2023-05-11T02:42:21;101175.44;;;32.62;70.23
23223;BME280;11780;13.904;100.620;2023-05-11T02:44:57;101171.88;;;32.62;70.35
23223;BME280;11780;13.904;100.620;2023-05-11T02:47:34;101166.47;;;32.65;70.38
23223;BME280;11780;13.904;100.620;2023-05-11T02:50:07;101167.91;;;32.63;70.38
23223;BME280;11780;13.904;100.620;2023-05-11T02:52:44;101169.25;;;32.65;70.46
23223;BME280;11780;13.904;100.620;2023-05-11T02:55:17;101167.63;;;32.64;70.54
23223;BME280;11780;13.904;100.620;2023-05-11T02:57:51;101159.81;;;32.67;70.34
23223;BME280;11780;13.904;100.620;2023-05-11T03:00:21;101161.44;;;32.68;70.27
23223;BME280;11780;13.904;100.620;2023-05-11T03:02:52;101145.31;;;32.70;70.34
23223;BME280;11780;13.904;100.620;2023-05-11T06:13:32;100916.75;;;32.55;62.09
23223;BME280;11780;13.904;100.620;2023-05-11T06:16:04;100921.16;;;32.56;62.04
23223;BME280;11780;13.904;100.620;2023-05-11T06:18:34;100923.78;;;32.52;61.63
23223;BME280;11780;13.904;100.620;2023-05-11T06:21:06;100918.41;;;32.47;61.97
23223;BME280;11780;13.904;100.620;2023-05-11T06:23:37;100921.00;;;32.52;61.93
23223;BME280;11780;13.904;100.620;2023-05-11T06:26:07;100914.66;;;32.52;61.92
23223;BME280;11780;13.904;100.620;2023-05-11T06:28:38;100901.94;;;32.50;62.13
23223;BME280;11780;13.904;100.620;2023-05-11T06:31:13;100888.44;;;32.49;62.23
23223;BME280;11780;13.904;100.620;2023-05-11T06:33:44;100882.06;;;32.48;62.67
23223;BME280;11780;13.904;100.620;2023-05-11T06:36:20;100875.88;;;32.52;62.99
23223;BME280;11780;13.904;100.620;2023-05-11T06:38:51;100875.09;;;32.51;63.26
23223;BME280;11780;13.904;100.620;2023-05-11T06:41:21;100860.75;;;32.49;63.54
23223;BME280;11780;13.904;100.620;2023-05-11T06:43:52;100858.47;;;32.51;63.56
23223;BME280;11780;13.904;100.620;2023-05-11T06:46:29;100854.38;;;32.48;63.94
23223;BME280;11780;13.904;100.620;2023-05-11T06:48:59;100848.19;;;32.52;64.10
23223;BME280;11780;13.904;100.620;2023-05-11T06:51:30;100841.34;;;32.58;64.48
23223;BME280;11780;13.904;100.620;2023-05-11T06:54:01;100838.22;;;32.59;64.82
23223;BME280;11780;13.904;100.620;2023-05-11T06:56:31;100834.16;;;32.57;65.13
23223;BME280;11780;13.904;100.620;2023-05-11T06:59:04;100826.00;;;32.60;65.39
23223;BME280;11780;13.904;100.620;2023-05-11T07:01:34;100827.81;;;32.56;65.84
23223;BME280;11780;13.904;100.620;2023-05-11T07:04:05;100825.19;;;32.60;65.91
23223;BME280;11780;13.904;100.620;2023-05-11T07:06:35;100812.97;;;32.61;66.12
23223;BME280;11780;13.904;100.620;2023-05-11T07:09:05;100812.16;;;32.60;66.42
23223;BME280;11780;13.904;100.620;2023-05-11T07:11:36;100808.59;;;32.60;66.47
23223;BME280;11780;13.904;100.620;2023-05-11T07:14:07;100805.81;;;32.60;66.82
23223;BME280;11780;13.904;100.620;2023-05-11T07:16:38;100798.03;;;32.53;67.02
23223;BME280;11780;13.904;100.620;2023-05-11T07:19:08;100794.25;;;32.58;67.17
23223;BME280;11780;13.904;100.620;2023-05-11T07:21:39;100784.94;;;32.62;67.07
23223;BME280;11780;13.904;100.620;2023-05-11T07:24:09;100788.72;;;32.58;67.51
23223;BME280;11780;13.904;100.620;2023-05-11T07:26:39;100788.84;;;32.61;67.70
23223;BME280;11780;13.904;100.620;2023-05-11T07:29:09;100780.72;;;32.56;67.79
23223;BME280;11780;13.904;100.620;2023-05-11T07:31:39;100781.75;;;32.52;67.97
23223;BME280;11780;13.904;100.620;2023-05-11T07:34:10;100778.78;;;32.57;68.03
23223;BME280;11780;13.904;100.620;2023-05-11T07:36:40;100767.06;;;32.60;68.19
23223;BME280;11780;13.904;100.620;2023-05-11T07:39:10;100765.25;;;32.55;68.34
23223;BME280;11780;13.904;100.620;2023-05-11T07:41:40;100761.03;;;32.58;68.60
23223;BME280;11780;13.904;100.620;2023-05-11T07:44:11;100756.97;;;32.55;68.72
23223;BME280;11780;13.904;100.620;2023-05-11T07:46:41;100760.56;;;32.56;68.67
23223;BME280;11780;13.904;100.620;2023-05-11T07:49:12;100757.78;;;32.56;68.75
23223;BME280;11780;13.904;100.620;2023-05-11T07:51:51;100745.56;;;32.57;68.85
23223;BME280;11780;13.904;100.620;2023-05-11T07:54:21;100744.41;;;32.58;68.77
23223;BME280;11780;13.904;100.620;2023-05-11T07:56:52;100734.34;;;32.53;68.92
23223;BME280;11780;13.904;100.620;2023-05-11T07:59:22;100735.63;;;32.56;69.02
23223;BME280;11780;13.904;100.620;2023-05-11T08:01:53;100732.03;;;32.55;69.33
23223;BME280;11780;13.904;100.620;2023-05-11T08:04:23;100716.25;;;32.56;69.17
23223;BME280;11780;13.904;100.620;2023-05-11T08:06:53;100716.25;;;32.56;69.10
23223;BME280;11780;13.904;100.620;2023-05-11T08:09:24;100715.09;;;32.57;69.08
23223;BME280;11780;13.904;100.620;2023-05-11T08:11:54;100705.97;;;32.56;68.81
23223;BME280;11780;13.904;100.620;2023-05-11T08:14:25;100704.81;;;32.57;68.58
23223;BME280;11780;13.904;100.620;2023-05-11T08:16:56;100700.44;;;32.56;68.26
23223;BME280;11780;13.904;100.620;2023-05-11T08:19:26;100699.63;;;32.56;68.33
23223;BME280;11780;13.904;100.620;2023-05-11T08:21:57;100702.88;;;32.58;68.38
23223;BME280;11780;13.904;100.620;2023-05-11T08:24:27;100701.75;;;32.59;68.41
23223;BME280;11780;13.904;100.620;2023-05-11T08:26:57;100695.38;;;32.58;68.25
23223;BME280;11780;13.904;100.620;2023-05-11T08:29:28;100686.59;;;32.56;68.12
23223;BME280;11780;13.904;100.620;2023-05-11T08:31:58;100682.66;;;32.57;68.07
23223;BME280;11780;13.904;100.620;2023-05-11T08:34:28;100691.81;;;32.58;67.95
23223;BME280;11780;13.904;100.620;2023-05-11T08:36:59;100692.59;;;32.58;68.06
23223;BME280;11780;13.904;100.620;2023-05-11T08:39:34;100693.44;;;32.59;67.97
23223;BME280;11780;13.904;100.620;2023-05-11T08:42:17;100690.00;;;32.62;67.79
23223;BME280;11780;13.904;100.620;2023-05-11T08:44:49;100691.94;;;32.61;67.91
23223;BME280;11780;13.904;100.620;2023-05-11T08:47:21;100692.75;;;32.62;68.00
23223;BME280;11780;13.904;100.620;2023-05-11T08:49:53;100697.13;;;32.63;67.98
23223;BME280;11780;13.904;100.620;2023-05-11T08:52:24;100688.03;;;32.62;68.14
23223;BME280;11780;13.904;100.620;2023-05-11T08:54:56;100681.34;;;32.63;68.03
23223;BME280;11780;13.904;100.620;2023-05-11T08:57:29;100677.41;;;32.64;68.06
23223;BME280;11780;13.904;100.620;2023-05-11T09:00:02;100672.69;;;32.65;68.01
23223;BME280;11780;13.904;100.620;2023-05-11T09:02:33;100660.44;;;32.66;67.97
23223;BME280;11780;13.904;100.620;2023-05-11T09:05:05;100653.28;;;32.65;67.78
23223;BME280;11780;13.904;100.620;2023-05-11T09:07:37;100659.78;;;32.69;67.61
23223;BME280;11780;13.904;100.620;2023-05-11T09:10:10;100655.88;;;32.70;67.44
23223;BME280;11780;13.904;100.620;2023-05-11T09:12:41;100649.06;;;32.68;67.54
23223;BME280;11780;13.904;100.620;2023-05-11T09:15:11;100649.38;;;32.66;67.54
23223;BME280;11780;13.904;100.620;2023-05-11T09:17:42;100639.25;;;32.70;67.62
23223;BME280;11780;13.904;100.620;2023-05-11T09:20:13;100635.69;;;32.70;67.50
23223;BME280;11780;13.904;100.620;2023-05-11T09:22:45;100636.34;;;32.67;67.08
23223;BME280;11780;13.904;100.620;2023-05-11T09:25:16;100640.75;;;32.68;66.74
23223;BME280;11780;13.904;100.620;2023-05-11T09:27:47;100641.91;;;32.67;66.88
23223;BME280;11780;13.904;100.620;2023-05-11T09:30:19;100640.41;;;32.69;66.76
23223;BME280;11780;13.904;100.620;2023-05-11T09:43:18;100625.06;;;32.72;65.72
23223;BME280;11780;13.904;100.620;2023-05-11T09:45:50;100617.09;;;32.70;65.82
23223;BME280;11780;13.904;100.620;2023-05-11T09:51:01;100598.19;;;32.72;65.95
23223;BME280;11780;13.904;100.620;2023-05-11T09:53:43;100601.44;;;32.74;65.24
23223;BME280;11780;13.904;100.620;2023-05-11T09:56:14;100606.50;;;32.72;65.06
23223;BME280;11780;13.904;100.620;2023-05-11T09:58:52;100612.03;;;32.72;65.52
23223;BME280;11780;13.904;100.620;2023-05-11T10:01:31;100619.19;;;32.73;65.38
23223;BME280;11780;13.904;100.620;2023-05-11T10:04:02;100613.78;;;32.77;65.47
23223;BME280;11780;13.904;100.620;2023-05-11T10:06:51;100621.28;;;32.76;65.42
23223;BME280;11780;13.904;100.620;2023-05-11T10:09:23;100618.03;;;32.74;65.47
23223;BME280;11780;13.904;100.620;2023-05-11T10:11:54;100621.13;;;32.73;65.54
23223;BME280;11780;13.904;100.620;2023-05-11T10:14:26;100615.75;;;32.76;65.56
23223;BME280;11780;13.904;100.620;2023-05-11T10:17:00;100614.13;;;32.75;65.33
23223;BME280;11780;13.904;100.620;2023-05-11T10:19:32;100605.34;;;32.73;65.44
23223;BME280;11780;13.904;100.620;2023-05-11T10:22:04;100605.66;;;32.72;65.37
23223;BME280;11780;13.904;100.620;2023-05-11T10:24:35;100617.56;;;32.72;65.38
23223;BME280;11780;13.904;100.620;2023-05-11T10:27:07;100624.72;;;32.73;65.38
23223;BME280;11780;13.904;100.620;2023-05-11T10:29:39;100624.38;;;32.75;64.82
23223;BME280;11780;13.904;100.620;2023-05-11T10:32:11;100626.81;;;32.76;65.47
23223;BME280;11780;13.904;100.620;2023-05-11T10:34:43;100640.19;;;32.74;65.30
23223;BME280;11780;13.904;100.620;2023-05-11T10:37:15;100639.84;;;32.76;65.27
23223;BME280;11780;13.904;100.620;2023-05-11T10:39:46;100648.16;;;32.76;64.76
23223;BME280;11780;13.904;100.620;2023-05-11T10:51:53;100671.16;;;32.76;64.85
23223;BME280;11780;13.904;100.620;2023-05-11T10:59:50;100680.25;;;32.77;65.03
23223;BME280;11780;13.904;100.620;2023-05-11T11:02:30;100678.63;;;32.76;64.83
23223;BME280;11780;13.904;100.620;2023-05-11T11:05:02;100687.75;;;32.76;64.83
23223;BME280;11780;13.904;100.620;2023-05-11T11:08:06;100684.50;;;32.74;64.71
23223;BME280;11780;13.904;100.620;2023-05-11T11:10:42;100688.44;;;32.73;64.64
23223;BME280;11780;13.904;100.620;2023-05-11T11:13:15;100682.41;;;32.71;64.60
23223;BME280;11780;13.904;100.620;2023-05-11T11:18:28;100693.63;;;32.75;64.41
23223;BME280;11780;13.904;100.620;2023-05-11T11:20:59;100701.94;;;32.75;64.24
23223;BME280;11780;13.904;100.620;2023-05-11T11:26:11;100712.22;;;32.74;64.33
23223;BME280;11780;13.904;100.620;2023-05-11T11:31:24;100716.25;;;32.77;64.23
23223;BME280;11780;13.904;100.620;2023-05-11T11:33:57;100697.22;;;32.75;64.43
23223;BME280;11780;13.904;100.620;2023-05-11T11:39:26;100696.75;;;32.73;64.25
23223;BME280;11780;13.904;100.620;2023-05-11T11:42:01;100692.00;;;32.74;63.95
23223;BME280;11780;13.904;100.620;2023-05-11T11:44:34;100699.16;;;32.75;63.76
23223;BME280;11780;13.904;100.620;2023-05-11T11:47:14;100701.44;;;32.73;63.38
23223;BME280;11780;13.904;100.620;2023-05-11T11:49:50;100701.81;;;32.71;63.27
23223;BME280;11780;13.904;100.620;2023-05-11T11:55:00;100714.50;;;32.72;62.79
23223;BME280;11780;13.904;100.620;2023-05-11T12:00:03;100725.59;;;32.72;62.96
23223;BME280;11780;13.904;100.620;2023-05-11T12:02:43;100719.22;;;32.72;63.00
23223;BME280;11780;13.904;100.620;2023-05-11T12:05:18;100718.91;;;32.73;63.03
23223;BME280;11780;13.904;100.620;2023-05-11T12:07:50;100714.97;;;32.74;63.12
23223;BME280;11780;13.904;100.620;2023-05-11T12:10:22;100724.44;;;32.73;63.31
23223;BME280;11780;13.904;100.620;2023-05-11T12:12:52;100733.91;;;32.72;63.52
23223;BME280;11780;13.904;100.620;2023-05-11T12:15:31;100745.44;;;32.74;63.94
23223;BME280;11780;13.904;100.620;2023-05-11T12:18:01;100747.38;;;32.74;64.22
23223;BME280;11780;13.904;100.620;2023-05-11T12:20:32;100751.66;;;32.71;64.66
23223;BME280;11780;13.904;100.620;2023-05-11T12:23:02;100758.47;;;32.74;64.81
23223;BME280;11780;13.904;100.620;2023-05-11T12:25:32;100759.63;;;32.73;64.85
23223;BME280;11780;13.904;100.620;2023-05-11T13:09:58;100832.13;;;32.36;66.71
23223;BME280;11780;13.904;100.620;2023-05-11T13:12:29;100835.72;;;32.37;66.49
23223;BME280;11780;13.904;100.620;2023-05-11T13:17:38;100835.22;;;32.43;66.50
23223;BME280;11780;13.904;100.620;2023-05-11T13:22:49;100833.78;;;32.67;66.05
23223;BME280;11780;13.904;100.620;2023-05-11T13:25:20;100844.69;;;32.72;65.99
23223;BME280;11780;13.904;100.620;2023-05-11T13:27:50;100843.81;;;32.80;65.88
23223;BME280;11780;13.904;100.620;2023-05-11T13:30:21;100852.47;;;32.79;65.97
23223;BME280;11780;13.904;100.620;2023-05-11T13:32:51;100853.09;;;32.85;65.87
23223;BME280;11780;13.904;100.620;2023-05-11T13:35:22;100852.31;;;32.84;65.75
23223;BME280;11780;13.904;100.620;2023-05-11T13:37:52;100864.34;;;32.79;65.41
23223;BME280;11780;13.904;100.620;2023-05-11T13:40:22;100859.94;;;32.78;65.34
23223;BME280;11780;13.904;100.620;2023-05-11T13:42:53;100866.81;;;32.81;65.14
23223;BME280;11780;13.904;100.620;2023-05-11T13:45:23;100864.34;;;32.79;64.68
23223;BME280;11780;13.904;100.620;2023-05-11T13:47:54;100863.88;;;32.77;64.58
23223;BME280;11780;13.904;100.620;2023-05-11T13:50:25;100870.06;;;32.83;64.31
23223;BME280;11780;13.904;100.620;2023-05-11T13:52:55;100869.09;;;32.79;64.22
23223;BME280;11780;13.904;100.620;2023-05-11T13:55:26;100870.41;;;32.82;64.08
23223;BME280;11780;13.904;100.620;2023-05-11T13:57:57;100868.72;;;32.80;63.63
23223;BME280;11780;13.904;100.620;2023-05-11T14:00:27;100873.66;;;32.75;63.42
23223;BME280;11780;13.904;100.620;2023-05-11T14:02:57;100885.09;;;32.73;63.17
23223;BME280;11780;13.904;100.620;2023-05-11T14:05:29;100882.19;;;32.70;63.22
23223;BME280;11780;13.904;100.620;2023-05-11T14:08:00;100887.88;;;32.64;63.20
23223;BME280;11780;13.904;100.620;2023-05-11T14:10:30;100889.66;;;32.69;62.93
23223;BME280;11780;13.904;100.620;2023-05-11T14:13:00;100888.69;;;32.65;62.86
23223;BME280;11780;13.904;100.620;2023-05-11T14:15:30;100888.06;;;32.59;63.20
23223;BME280;11780;13.904;100.620;2023-05-11T14:18:00;100900.78;;;32.60;62.97
23223;BME280;11780;13.904;100.620;2023-05-11T14:20:35;100893.81;;;32.54;63.17
23223;BME280;11780;13.904;100.620;2023-05-11T14:23:09;100901.94;;;32.50;63.28
23223;BME280;11780;13.904;100.620;2023-05-11T14:25:39;100894.78;;;32.49;63.44
23223;BME280;11780;13.904;100.620;2023-05-11T14:28:10;100917.38;;;32.60;63.49
23223;BME280;11780;13.904;100.620;2023-05-11T14:30:40;100909.34;;;32.76;63.48
23223;BME280;11780;13.904;100.620;2023-05-11T14:33:10;100912.44;;;32.75;63.70
23223;BME280;11780;13.904;100.620;2023-05-11T14:35:41;100914.59;;;32.69;64.11
23223;BME280;11780;13.904;100.620;2023-05-11T14:38:11;100915.34;;;32.78;64.06
23223;BME280;11780;13.904;100.620;2023-05-11T14:40:41;100915.69;;;32.77;64.36
23223;BME280;11780;13.904;100.620;2023-05-11T14:43:12;100928.06;;;32.79;64.23
23223;BME280;11780;13.904;100.620;2023-05-11T14:45:42;100927.59;;;32.77;64.53
23223;BME280;11780;13.904;100.620;2023-05-11T14:48:13;100935.72;;;32.83;64.32
23223;BME280;11780;13.904;100.620;2023-05-11T14:50:43;100942.25;;;32.87;64.24
23223;BME280;11780;13.904;100.620;2023-05-11T14:53:13;100950.56;;;32.87;64.33
23223;BME280;11780;13.904;100.620;2023-05-11T14:55:44;100947.97;;;32.82;64.33
23223;BME280;11780;13.904;100.620;2023-05-11T14:58:14;100953.50;;;32.82;64.33
23223;BME280;11780;13.904;100.620;2023-05-11T15:00:44;100954.81;;;32.84;64.41
23223;BME280;11780;13.904;100.620;2023-05-11T15:03:14;100952.97;;;32.88;64.66
23223;BME280;11780;13.904;100.620;2023-05-11T15:05:45;100966.03;;;32.88;64.82
23223;BME280;11780;13.904;100.620;2023-05-11T15:08:15;100956.44;;;32.85;64.91
23223;BME280;11780;13.904;100.620;2023-05-11T15:10:57;100962.28;;;32.84;64.93
23223;BME280;11780;13.904;100.620;2023-05-11T15:13:28;100966.03;;;32.88;64.84
23223;BME280;11780;13.904;100.620;2023-05-11T15:15:58;100971.75;;;32.83;65.09
23223;BME280;11780;13.904;100.620;2023-05-11T15:18:28;100971.75;;;32.83;65.23
23223;BME280;11780;13.904;100.620;2023-05-11T15:20:59;100965.69;;;32.80;65.29
23223;BME280;11780;13.904;100.620;2023-05-11T15:23:32;100971.22;;;32.80;65.31
23223;BME280;11780;13.904;100.620;2023-05-11T15:26:02;100978.44;;;32.82;65.23
23223;BME280;11780;13.904;100.620;2023-05-11T15:28:32;100971.22;;;32.80;65.36
23223;BME280;11780;13.904;100.620;2023-05-11T15:31:03;100979.88;;;32.79;65.46
23223;BME280;11780;13.904;100.620;2023-05-11T15:33:33;100974.84;;;32.81;65.33
23223;BME280;11780;13.904;100.620;2023-05-11T15:36:10;100977.13;;;32.79;65.27
23223;BME280;11780;13.904;100.620;2023-05-11T15:38:42;100968.34;;;32.68;65.49
23223;BME280;11780;13.904;100.620;2023-05-11T15:41:14;100966.72;;;32.67;65.86
23223;BME280;11780;13.904;100.620;2023-05-11T15:43:45;100966.72;;;32.67;65.54
23223;BME280;11780;13.904;100.620;2023-05-11T15:46:15;100971.78;;;32.65;65.46
23223;BME280;11780;13.904;100.620;2023-05-11T16:11:45;100963.47;;;32.65;65.36
23223;BME280;11780;13.904;100.620;2023-05-11T16:14:16;100962.31;;;32.66;65.68
23223;BME280;11780;13.904;100.620;2023-05-11T16:16:47;100961.19;;;32.67;65.65
23223;BME280;11780;13.904;100.620;2023-05-11T16:19:17;100954.00;;;32.66;65.61
23223;BME280;11780;13.904;100.620;2023-05-11T16:21:48;100955.78;;;32.71;65.43
23223;BME280;11780;13.904;100.620;2023-05-11T16:24:18;100950.59;;;32.69;65.35
23223;BME280;11780;13.904;100.620;2023-05-11T16:26:49;100947.34;;;32.67;65.48
23223;BME280;11780;13.904;100.620;2023-05-11T16:29:20;100957.28;;;32.68;65.41
23223;BME280;11780;13.904;100.620;2023-05-11T16:31:51;100941.94;;;32.71;65.37
23223;BME280;11780;13.904;100.620;2023-05-11T16:34:22;100949.44;;;32.70;65.57
23223;BME280;11780;13.904;100.620;2023-05-11T16:36:52;100946.19;;;32.68;65.49
23223;BME280;11780;13.904;100.620;2023-05-11T16:39:26;100945.03;;;32.69;65.67
23223;BME280;11780;13.904;100.620;2023-05-11T16:41:56;100947.81;;;32.69;65.60
23223;BME280;11780;13.904;100.620;2023-05-11T16:44:27;100945.03;;;32.69;65.54
23223;BME280;11780;13.904;100.620;2023-05-11T16:46:58;100950.09;;;32.67;65.75
23223;BME280;11780;13.904;100.620;2023-05-11T16:49:29;100945.03;;;32.69;65.64
23223;BME280;11780;13.904;100.620;2023-05-11T16:52:00;100951.06;;;32.71;65.43
23223;BME280;11780;13.904;100.620;2023-05-11T16:54:31;100950.25;;;32.71;65.37
23223;BME280;11780;13.904;100.620;2023-05-11T16:57:02;100957.91;;;32.74;65.33
23223;BME280;11780;13.904;100.620;2023-05-11T16:59:33;100960.66;;;32.74;65.33
23223;BME280;11780;13.904;100.620;2023-05-11T17:02:04;100967.03;;;32.74;65.22
23223;BME280;11780;13.904;100.620;2023-05-11T17:04:36;100970.47;;;32.71;65.38
23223;BME280;11780;13.904;100.620;2023-05-11T17:07:07;100968.66;;;32.75;65.38
23223;BME280;11780;13.904;100.620;2023-05-11T17:09:40;100963.78;;;32.72;65.36
23223;BME280;11780;13.904;100.620;2023-05-11T17:12:11;100967.34;;;32.73;65.55
23223;BME280;11780;13.904;100.620;2023-05-11T17:14:41;100962.94;;;32.72;65.45
23223;BME280;11780;13.904;100.620;2023-05-11T17:17:12;100966.06;;;32.70;65.64
23223;BME280;11780;13.904;100.620;2023-05-11T17:19:43;100971.13;;;32.68;65.55
23223;BME280;11780;13.904;100.620;2023-05-11T17:22:13;100966.06;;;32.70;65.55
23223;BME280;11780;13.904;100.620;2023-05-11T17:24:44;100962.00;;;32.68;65.77
23223;BME280;11780;13.904;100.620;2023-05-11T17:27:14;100960.38;;;32.67;65.79
23223;BME280;11780;13.904;100.620;2023-05-11T17:29:45;100954.00;;;32.66;65.89
23223;BME280;11780;13.904;100.620;2023-05-11T17:32:15;100958.09;;;32.69;65.77
23223;BME280;11780;13.904;100.620;2023-05-11T17:34:47;100956.47;;;32.68;65.75
23223;BME280;11780;13.904;100.620;2023-05-11T17:37:17;100954.00;;;32.66;65.76
23223;BME280;11780;13.904;100.620;2023-05-11T17:40:01;100949.63;;;32.65;65.82
23223;BME280;11780;13.904;100.620;2023-05-11T17:42:32;100943.41;;;32.68;66.02
23223;BME280;11780;13.904;100.620;2023-05-11T17:45:03;100938.22;;;32.67;66.08
23223;BME280;11780;13.904;100.620;2023-05-11T17:47:34;100942.44;;;32.64;66.01
23223;BME280;11780;13.904;100.620;2023-05-11T17:50:05;100944.06;;;32.65;66.10
23223;BME280;11780;13.904;100.620;2023-05-11T17:52:36;100939.84;;;32.68;66.07
23223;BME280;11780;13.904;100.620;2023-05-11T17:55:07;100935.63;;;32.61;66.14
23223;BME280;11780;13.904;100.620;2023-05-11T17:57:40;100937.91;;;32.59;66.20
23223;BME280;11780;13.904;100.620;2023-05-11T18:00:11;100944.91;;;32.65;66.00
23223;BME280;11780;13.904;100.620;2023-05-11T18:02:45;100939.38;;;32.65;66.27